sensor_id;sensor_type;location;lat;lon;timestamp;pressure;altitude;pressure_sealevel;temperature;humidity
63901;BME280;50538;53.482;10.294;2023-03-23T00:09:40;99888.97;;;11.44;94.57
63901;BME280;50538;53.482;10.294;2023-03-23T00:19:41;99877.59;;;11.28;97.38
63901;BME280;50538;53.482;10.294;2023-03-23T00:29:49;99879.13;;;11.16;99.92
63901;BME280;50538;53.482;10.294;2023-03-23T00:39:52;99876.00;;;11.06;100.00
63901;BME280;50538;53.482;10.294;2023-03-23T00:49:57;99876.94;;;10.99;100.00
63901;BME280;50538;53.482;10.294;2023-03-23T00:59:57;99862.13;;;10.89;100.00
63901;BME280;50538;53.482;10.294;2023-03-23T01:09:57;99829.34;;;10.82;100.00
63901;BME280;50538;53.482;10.294;2023-03-23T01:20:00;99809.03;;;10.75;100.00
63901;BME280;50538;53.482;10.294;2023-03-23T01:30:01;99785.53;;;10.72;100.00
63901;BME280;50538;53.482;10.294;2023-03-23T01:40:01;99768.13;;;10.69;100.00
63901;BME280;50538;53.482;10.294;2023-03-23T01:50:04;99760.34;;;10.68;100.00
63901;BME280;50538;53.482;10.294;2023-03-23T02:00:07;99766.44;;;10.61;100.00
63901;BME280;50538;53.482;10.294;2023-03-23T02:10:14;99734.38;;;10.63;100.00
63901;BME280;50538;53.482;10.294;2023-03-23T02:41:30;99728.88;;;10.64;100.00
63901;BME280;50538;53.482;10.294;2023-03-23T02:51:32;99716.25;;;10.67;100.00
63901;BME280;50538;53.482;10.294;2023-03-23T03:11:39;99683.63;;;10.73;100.00
63901;BME280;50538;53.482;10.294;2023-03-23T03:21:42;99693.84;;;10.76;100.00
63901;BME280;50538;53.482;10.294;2023-03-23T03:31:45;99676.72;;;10.78;100.00
63901;BME280;50538;53.482;10.294;2023-03-23T03:41:47;99660.59;;;10.80;100.00
63901;BME280;50538;53.482;10.294;2023-03-23T03:51:48;99639.97;;;10.82;100.00
63901;BME280;50538;53.482;10.294;2023-03-23T04:01:48;99619.56;;;10.82;100.00
63901;BME280;50538;53.482;10.294;2023-03-23T04:11:54;99638.38;;;10.87;100.00
63901;BME280;50538;53.482;10.294;2023-03-23T04:21:54;99642.53;;;10.90;100.00
63901;BME280;50538;53.482;10.294;2023-03-23T04:31:55;99639.66;;;10.91;100.00
63901;BME280;50538;53.482;10.294;2023-03-23T04:41:55;99636.22;;;10.98;100.00
63901;BME280;50538;53.482;10.294;2023-03-23T04:52:01;99650.81;;;11.08;100.00
63901;BME280;50538;53.482;10.294;2023-03-23T05:02:01;99636.56;;;11.22;100.00
63901;BME280;50538;53.482;10.294;2023-03-23T05:12:06;99636.41;;;11.31;100.00
63901;BME280;50538;53.482;10.294;2023-03-23T05:22:07;99628.44;;;11.31;100.00
63901;BME280;50538;53.482;10.294;2023-03-23T05:32:07;99632.75;;;11.38;100.00
63901;BME280;50538;53.482;10.294;2023-03-23T05:42:08;99636.81;;;11.34;100.00
63901;BME280;50538;53.482;10.294;2023-03-23T05:52:08;99625.38;;;11.34;100.00
63901;BME280;50538;53.482;10.294;2023-03-23T06:02:10;99630.06;;;11.32;100.00
63901;BME280;50538;53.482;10.294;2023-03-23T06:12:10;99627.00;;;11.35;100.00
63901;BME280;50538;53.482;10.294;2023-03-23T06:22:11;99614.78;;;11.40;100.00
63901;BME280;50538;53.482;10.294;2023-03-23T06:32:13;99625.22;;;11.42;100.00
63901;BME280;50538;53.482;10.294;2023-03-23T06:42:13;99636.47;;;11.44;99.05
63901;BME280;50538;53.482;10.294;2023-03-23T06:52:14;99636.84;;;11.41;98.39
63901;BME280;50538;53.482;10.294;2023-03-23T07:02:15;99635.66;;;11.43;98.27
63901;BME280;50538;53.482;10.294;2023-03-23T07:12:15;99638.75;;;11.53;98.14
63901;BME280;50538;53.482;10.294;2023-03-23T07:22:16;99638.59;;;11.75;96.53
63901;BME280;50538;53.482;10.294;2023-03-23T07:32:17;99636.88;;;12.15;96.38
63901;BME280;50538;53.482;10.294;2023-03-23T07:42:17;99640.13;;;12.37;93.72
63901;BME280;50538;53.482;10.294;2023-03-23T07:52:17;99657.75;;;12.31;92.82
63901;BME280;50538;53.482;10.294;2023-03-23T08:02:19;99651.19;;;12.27;94.00
63901;BME280;50538;53.482;10.294;2023-03-23T08:12:19;99653.44;;;12.30;93.61
63901;BME280;50538;53.482;10.294;2023-03-23T08:22:20;99648.34;;;12.35;93.57
63901;BME280;50538;53.482;10.294;2023-03-23T08:32:21;99642.59;;;12.38;94.09
63901;BME280;50538;53.482;10.294;2023-03-23T08:42:25;99663.28;;;12.43;94.54
63901;BME280;50538;53.482;10.294;2023-03-23T08:52:26;99701.78;;;12.40;98.42
63901;BME280;50538;53.482;10.294;2023-03-23T09:02:27;99688.03;;;12.30;100.00
63901;BME280;50538;53.482;10.294;2023-03-23T09:12:27;99708.06;;;12.06;92.42
63901;BME280;50538;53.482;10.294;2023-03-23T09:22:27;99722.38;;;11.99;91.34
63901;BME280;50538;53.482;10.294;2023-03-23T09:32:29;99730.97;;;12.01;89.67
63901;BME280;50538;53.482;10.294;2023-03-23T09:42:41;99755.53;;;12.03;89.54
63901;BME280;50538;53.482;10.294;2023-03-23T09:52:52;99756.22;;;12.18;87.92
63901;BME280;50538;53.482;10.294;2023-03-23T10:03:16;99751.97;;;12.43;85.75
63901;BME280;50538;53.482;10.294;2023-03-23T10:13:27;99767.59;;;12.59;85.78
63901;BME280;50538;53.482;10.294;2023-03-23T10:33:46;99776.44;;;13.13;83.87
63901;BME280;50538;53.482;10.294;2023-03-23T10:43:47;99776.63;;;13.31;83.30
63901;BME280;50538;53.482;10.294;2023-03-23T10:53:56;99803.66;;;13.54;80.88
63901;BME280;50538;53.482;10.294;2023-03-23T11:03:57;99796.47;;;13.62;81.25
63901;BME280;50538;53.482;10.294;2023-03-23T11:14:11;99793.41;;;13.51;80.02
63901;BME280;50538;53.482;10.294;2023-03-23T11:24:13;99803.66;;;13.54;81.14
63901;BME280;50538;53.482;10.294;2023-03-23T11:34:21;99797.09;;;13.50;81.93
63901;BME280;50538;53.482;10.294;2023-03-23T11:44:24;99816.38;;;13.52;82.71
63901;BME280;50538;53.482;10.294;2023-03-23T11:54:40;99824.19;;;13.47;84.46
63901;BME280;50538;53.482;10.294;2023-03-23T12:15:09;99844.50;;;13.48;85.14
63901;BME280;50538;53.482;10.294;2023-03-23T12:46:23;99836.94;;;13.32;85.42
63901;BME280;50538;53.482;10.294;2023-03-23T12:56:38;99828.06;;;13.58;84.35
63901;BME280;50538;53.482;10.294;2023-03-23T13:06:44;99824.38;;;13.66;83.06
63901;BME280;50538;53.482;10.294;2023-03-23T13:26:54;99817.06;;;14.12;81.42
63901;BME280;50538;53.482;10.294;2023-03-23T13:47:08;99793.63;;;14.21;81.92
63901;BME280;50538;53.482;10.294;2023-03-23T13:57:33;99802.16;;;14.43;78.72
63901;BME280;50538;53.482;10.294;2023-03-23T14:08:14;99791.41;;;14.87;78.24
63901;BME280;50538;53.482;10.294;2023-03-23T14:18:21;99791.81;;;14.84;75.34
63901;BME280;50538;53.482;10.294;2023-03-23T14:28:27;99799.69;;;14.48;73.79
63901;BME280;50538;53.482;10.294;2023-03-23T14:38:27;99852.47;;;13.02;86.95
63901;BME280;50538;53.482;10.294;2023-03-23T14:48:28;99840.50;;;12.52;87.95
63901;BME280;50538;53.482;10.294;2023-03-23T14:58:30;99857.41;;;12.38;85.26
63901;BME280;50538;53.482;10.294;2023-03-23T15:08:33;99841.53;;;12.10;84.10
63901;BME280;50538;53.482;10.294;2023-03-23T15:18:37;99855.13;;;12.21;82.76
63901;BME280;50538;53.482;10.294;2023-03-23T15:28:40;99888.84;;;12.14;85.56
63901;BME280;50538;53.482;10.294;2023-03-23T15:38:43;99890.22;;;12.04;87.45
63901;BME280;50538;53.482;10.294;2023-03-23T15:48:51;99900.38;;;11.93;87.57
63901;BME280;50538;53.482;10.294;2023-03-23T15:58:54;99850.00;;;12.20;85.46
63901;BME280;50538;53.482;10.294;2023-03-23T16:08:57;99855.53;;;12.32;79.53
63901;BME280;50538;53.482;10.294;2023-03-23T16:18:57;99875.59;;;12.21;77.81
63901;BME280;50538;53.482;10.294;2023-03-23T16:28:57;99883.44;;;12.01;78.41
63901;BME280;50538;53.482;10.294;2023-03-23T16:38:58;99903.03;;;11.93;79.82
63901;BME280;50538;53.482;10.294;2023-03-23T16:48:59;99938.53;;;11.79;86.03
63901;BME280;50538;53.482;10.294;2023-03-23T16:58:59;99887.44;;;11.56;89.96
63901;BME280;50538;53.482;10.294;2023-03-23T17:09:00;99884.50;;;11.44;91.46
63901;BME280;50538;53.482;10.294;2023-03-23T17:19:00;99916.25;;;11.31;92.80
63901;BME280;50538;53.482;10.294;2023-03-23T17:29:01;99912.47;;;11.19;93.46
63901;BME280;50538;53.482;10.294;2023-03-23T17:39:02;99924.63;;;11.07;94.45
63901;BME280;50538;53.482;10.294;2023-03-23T17:49:02;99932.16;;;11.03;95.14
63901;BME280;50538;53.482;10.294;2023-03-23T17:59:03;99936.66;;;10.88;94.48
63901;BME280;50538;53.482;10.294;2023-03-23T18:09:03;99933.84;;;10.75;94.02
63901;BME280;50538;53.482;10.294;2023-03-23T18:19:04;99934.03;;;10.58;94.07
63901;BME280;50538;53.482;10.294;2023-03-23T18:29:05;99953.47;;;10.44;94.50
63901;BME280;50538;53.482;10.294;2023-03-23T18:39:05;99951.28;;;10.33;95.07
63901;BME280;50538;53.482;10.294;2023-03-23T18:49:09;99959.69;;;10.22;96.40
63901;BME280;50538;53.482;10.294;2023-03-23T18:59:09;99954.13;;;10.17;97.41
63901;BME280;50538;53.482;10.294;2023-03-23T19:09:10;99956.47;;;10.12;97.85
63901;BME280;50538;53.482;10.294;2023-03-23T19:19:10;99957.84;;;10.08;98.28
63901;BME280;50538;53.482;10.294;2023-03-23T19:29:16;99953.44;;;10.00;99.11
63901;BME280;50538;53.482;10.294;2023-03-23T19:39:17;99962.78;;;9.96;99.64
63901;BME280;50538;53.482;10.294;2023-03-23T19:49:18;99968.66;;;9.91;100.00
63901;BME280;50538;53.482;10.294;2023-03-23T19:59:18;99973.75;;;9.93;100.00
63901;BME280;50538;53.482;10.294;2023-03-23T20:09:18;99941.13;;;9.92;100.00
63901;BME280;50538;53.482;10.294;2023-03-23T20:19:19;99927.22;;;9.90;100.00
63901;BME280;50538;53.482;10.294;2023-03-23T20:29:19;99932.25;;;9.85;100.00
63901;BME280;50538;53.482;10.294;2023-03-23T20:39:20;99933.97;;;9.78;100.00
63901;BME280;50538;53.482;10.294;2023-03-23T20:49:23;99918.41;;;9.75;100.00
63901;BME280;50538;53.482;10.294;2023-03-23T20:59:24;99913.28;;;9.74;100.00
63901;BME280;50538;53.482;10.294;2023-03-23T21:09:24;99910.63;;;9.74;100.00
63901;BME280;50538;53.482;10.294;2023-03-23T21:19:25;99903.69;;;9.73;100.00
63901;BME280;50538;53.482;10.294;2023-03-23T21:29:26;99904.69;;;9.72;100.00
63901;BME280;50538;53.482;10.294;2023-03-23T21:39:26;99911.81;;;9.71;100.00
63901;BME280;50538;53.482;10.294;2023-03-23T21:49:36;99892.91;;;9.74;100.00
63901;BME280;50538;53.482;10.294;2023-03-23T21:59:37;99881.94;;;9.77;100.00
63901;BME280;50538;53.482;10.294;2023-03-23T22:09:38;99861.66;;;9.84;100.00
63901;BME280;50538;53.482;10.294;2023-03-23T22:19:40;99852.34;;;9.88;100.00
63901;BME280;50538;53.482;10.294;2023-03-23T22:29:40;99843.63;;;9.94;100.00
63901;BME280;50538;53.482;10.294;2023-03-23T22:39:40;99828.97;;;9.98;100.00
63901;BME280;50538;53.482;10.294;2023-03-23T22:49:41;99803.28;;;9.99;100.00
63901;BME280;50538;53.482;10.294;2023-03-23T22:59:41;99785.81;;;10.05;100.00
63901;BME280;50538;53.482;10.294;2023-03-23T23:09:43;99768.91;;;10.06;100.00
63901;BME280;50538;53.482;10.294;2023-03-23T23:19:43;99743.19;;;10.06;100.00
63901;BME280;50538;53.482;10.294;2023-03-23T23:29:44;99727.91;;;10.08;100.00
63901;BME280;50538;53.482;10.294;2023-03-23T23:39:44;99718.75;;;10.11;100.00
63901;BME280;50538;53.482;10.294;2023-03-23T23:49:45;99718.00;;;10.17;100.00
63901;BME280;50538;53.482;10.294;2023-03-23T23:59:45;99702.53;;;10.20;100.00
